Time;durP1;ratioP1;P1;durP2;ratioP2;P2;SDS_P1;SDS_P2;PMS_P1;PMS_P2;Temp;Humidity;BMP_temperature;BMP_pressure;BME280_temperature;BME280_humidity;BME280_pressure;Samples;Min_cycle;Max_cycle;Signal;HPM_P1;HPM_P2
2021/04/14 00:01:22;;;;;;;7.63;4.85;;;4.40;77.70;;;;;;4935878;29;20023;-74
2021/04/14 00:03:47;;;;;;;6.53;4.97;;;4.40;78.30;;;;;;4936539;29;20028;-78
2021/04/14 00:06:13;;;;;;;11.15;5.40;;;4.40;78.30;;;;;;4919125;29;20036;-78
2021/04/14 00:08:39;;;;;;;6.72;4.55;;;4.30;78.50;;;;;;4936118;29;20395;-78
2021/04/14 00:11:07;;;;;;;6.93;5.28;;;4.20;78.80;;;;;;4936214;29;20394;-75
2021/04/14 00:13:41;;;;;;;9.15;4.88;;;4.20;78.90;;;;;;4936191;29;20347;-74
2021/04/14 00:16:10;;;;;;;8.13;4.80;;;4.10;79.30;;;;;;4919129;29;20045;-75
2021/04/14 00:18:35;;;;;;;8.18;4.93;;;4.10;78.80;;;;;;4933665;29;20028;-74
2021/04/14 00:21:01;;;;;;;8.55;5.43;;;4.10;79.10;;;;;;4935605;29;20208;-78
2021/04/14 00:23:27;;;;;;;9.50;5.07;;;4.10;79.50;;;;;;4935989;29;20399;-75
2021/04/14 00:25:53;;;;;;;8.80;5.22;;;4.00;79.50;;;;;;4933887;29;20043;-74
2021/04/14 00:28:24;;;;;;;7.80;5.07;;;4.00;79.40;;;;;;4935732;29;20541;-79
2021/04/14 00:30:51;;;;;;;10.18;5.13;;;4.00;79.30;;;;;;4935597;29;20039;-79
2021/04/14 00:33:18;;;;;;;7.68;4.97;;;4.00;79.70;;;;;;4939195;29;20030;-74
2021/04/14 00:35:44;;;;;;;8.13;5.22;;;4.00;79.50;;;;;;4942395;29;20078;-78
2021/04/14 00:38:11;;;;;;;9.02;5.10;;;3.90;79.70;;;;;;4934619;29;20063;-74
2021/04/14 00:40:43;;;;;;;7.90;5.10;;;3.90;79.90;;;;;;4935659;29;20038;-78
2021/04/14 00:43:11;;;;;;;7.50;5.60;;;3.90;80.10;;;;;;4935800;29;20502;-78
2021/04/14 00:45:36;;;;;;;7.10;5.15;;;3.80;80.10;;;;;;4918388;29;20054;-74
2021/04/14 00:48:02;;;;;;;7.72;5.18;;;3.80;80.10;;;;;;4933540;29;20475;-75
2021/04/14 00:50:28;;;;;;;9.30;5.22;;;3.80;80.10;;;;;;4935020;29;20451;-74
2021/04/14 00:52:53;;;;;;;7.72;5.13;;;3.80;80.40;;;;;;4935144;29;20423;-74
2021/04/14 00:55:29;;;;;;;9.20;5.55;;;3.70;80.30;;;;;;4935027;29;20130;-78
2021/04/14 00:57:55;;;;;;;10.48;5.93;;;3.70;79.90;;;;;;4907431;29;20388;-78
2021/04/14 01:00:31;;;;;;;6.55;5.00;;;3.70;80.20;;;;;;4917811;29;20038;-78
2021/04/14 01:02:57;;;;;;;8.95;5.70;;;3.70;80.10;;;;;;4925352;29;20028;-74
2021/04/14 01:05:23;;;;;;;7.28;5.43;;;3.60;80.30;;;;;;4931977;29;20035;-75
2021/04/14 01:07:50;;;;;;;9.68;5.90;;;3.50;80.20;;;;;;4918242;29;20055;-78
2021/04/14 01:10:17;;;;;;;10.75;5.72;;;3.50;80.40;;;;;;4935121;29;20054;-78
2021/04/14 01:12:43;;;;;;;9.68;5.60;;;3.50;80.10;;;;;;4935451;29;20037;-74
2021/04/14 01:15:12;;;;;;;10.85;5.43;;;3.60;79.80;;;;;;4935195;29;20098;-74
2021/04/14 01:17:38;;;;;;;9.90;5.72;;;3.60;79.10;;;;;;4917860;29;20149;-78
2021/04/14 01:20:05;;;;;;;8.90;5.80;;;3.70;79.20;;;;;;4934639;29;20028;-74
2021/04/14 01:22:32;;;;;;;9.02;5.97;;;3.60;78.80;;;;;;4917763;29;20023;-78
2021/04/14 01:24:57;;;;;;;9.32;6.25;;;3.70;78.40;;;;;;4933533;29;20063;-74
2021/04/14 01:27:23;;;;;;;7.90;5.40;;;3.70;78.50;;;;;;4934461;29;20512;-78
2021/04/14 01:29:49;;;;;;;11.15;6.03;;;3.70;78.40;;;;;;4935048;29;20139;-78
2021/04/14 01:32:14;;;;;;;10.38;6.50;;;3.60;78.80;;;;;;4916406;29;20039;-75
2021/04/14 01:34:40;;;;;;;8.40;6.05;;;3.60;79.00;;;;;;4934885;29;20398;-78
2021/04/14 01:37:06;;;;;;;9.20;6.88;;;3.50;79.20;;;;;;4934670;29;20398;-78
2021/04/14 01:39:31;;;;;;;11.48;6.25;;;3.40;79.20;;;;;;4917476;29;20030;-78
2021/04/14 01:41:57;;;;;;;9.90;6.75;;;3.30;79.80;;;;;;4934728;29;20479;-78
2021/04/14 01:44:23;;;;;;;12.93;7.03;;;3.30;80.00;;;;;;4934762;29;20016;-74
2021/04/14 01:46:49;;;;;;;14.05;7.55;;;3.30;80.60;;;;;;4934713;29;20083;-74
2021/04/14 01:49:15;;;;;;;10.93;6.75;;;3.30;80.20;;;;;;4934671;29;20036;-74
2021/04/14 01:51:41;;;;;;;11.95;7.35;;;3.20;80.30;;;;;;4934518;29;20111;-78
2021/04/14 01:54:07;;;;;;;11.48;7.38;;;3.20;80.80;;;;;;4934507;29;20055;-75
2021/04/14 01:56:35;;;;;;;12.60;6.97;;;3.20;80.70;;;;;;4934627;29;20039;-74
2021/04/14 01:59:00;;;;;;;11.05;7.38;;;3.10;80.80;;;;;;4934471;29;20031;-74
2021/04/14 02:01:26;;;;;;;10.68;7.03;;;3.10;80.60;;;;;;4934044;29;20098;-78
2021/04/14 02:03:52;;;;;;;12.38;6.80;;;3.20;80.50;;;;;;4934536;29;20028;-74
2021/04/14 02:06:18;;;;;;;12.30;7.32;;;3.20;80.20;;;;;;4932495;29;20032;-78
2021/04/14 02:08:45;;;;;;;10.68;7.43;;;3.20;80.10;;;;;;4919583;29;20525;-78
2021/04/14 02:11:14;;;;;;;11.60;7.35;;;3.20;79.90;;;;;;4938176;29;20031;-75
2021/04/14 02:13:42;;;;;;;12.10;8.00;;;3.20;79.90;;;;;;4937044;29;20067;-74
2021/04/14 02:16:13;;;;;;;13.93;8.30;;;3.20;79.50;;;;;;4938500;29;20475;-78
2021/04/14 02:18:38;;;;;;;14.80;8.63;;;3.10;79.30;;;;;;4938572;29;20129;-78
2021/04/14 02:21:04;;;;;;;11.27;7.68;;;3.20;79.60;;;;;;4937408;29;20032;-78
2021/04/14 02:23:35;;;;;;;13.32;7.85;;;3.10;79.20;;;;;;4937569;29;20114;-74
2021/04/14 02:26:04;;;;;;;12.80;8.10;;;3.10;79.40;;;;;;4936444;29;20031;-74
2021/04/14 02:28:30;;;;;;;14.68;8.43;;;3.10;80.00;;;;;;4937720;29;20032;-78
2021/04/14 02:30:57;;;;;;;13.65;8.05;;;3.10;79.60;;;;;;4922128;29;20032;-78
2021/04/14 02:33:23;;;;;;;16.33;8.52;;;3.10;79.50;;;;;;4937399;29;20063;-74
2021/04/14 02:35:50;;;;;;;14.15;8.60;;;3.00;79.60;;;;;;4937603;29;20053;-74
2021/04/14 02:38:17;;;;;;;15.82;8.40;;;3.00;79.40;;;;;;4937442;29;20023;-74
2021/04/14 02:40:43;;;;;;;15.38;8.98;;;3.00;79.90;;;;;;4937583;29;20035;-78
2021/04/14 02:43:10;;;;;;;12.18;8.15;;;3.00;79.60;;;;;;4937121;29;20028;-75
2021/04/14 02:45:38;;;;;;;17.58;9.68;;;2.90;79.40;;;;;;4937910;29;20046;-78
2021/04/14 02:48:04;;;;;;;14.70;8.55;;;2.90;79.70;;;;;;4937666;29;20038;-74
2021/04/14 02:50:31;;;;;;;14.60;8.95;;;2.90;79.90;;;;;;4920255;29;20031;-74
2021/04/14 02:52:57;;;;;;;16.42;9.70;;;2.80;80.00;;;;;;4937482;29;20051;-78
2021/04/14 02:55:25;;;;;;;15.70;9.15;;;2.80;80.30;;;;;;4937812;29;20051;-78
2021/04/14 02:57:51;;;;;;;14.57;9.27;;;2.80;79.90;;;;;;4937797;29;20028;-78
2021/04/14 03:00:18;;;;;;;18.55;10.30;;;2.80;80.40;;;;;;4920029;29;20399;-74
2021/04/14 03:02:44;;;;;;;15.82;10.05;;;2.70;80.20;;;;;;4936295;29;20027;-74
2021/04/14 03:05:11;;;;;;;15.60;10.05;;;2.70;80.50;;;;;;4920275;29;20079;-78
2021/04/14 03:07:38;;;;;;;18.50;10.23;;;2.70;80.60;;;;;;4920427;29;20091;-78
2021/04/14 03:10:06;;;;;;;16.58;8.77;;;2.70;80.00;;;;;;4937668;29;20032;-78
2021/04/14 03:12:31;;;;;;;16.33;9.18;;;2.70;80.00;;;;;;4915297;29;20502;-78
2021/04/14 03:14:57;;;;;;;16.27;9.32;;;2.60;79.60;;;;;;4937426;29;20024;-79
2021/04/14 03:17:23;;;;;;;16.50;9.45;;;2.70;79.90;;;;;;4937311;29;20399;-78
2021/04/14 03:19:48;;;;;;;15.07;9.95;;;2.70;79.50;;;;;;4936801;29;20040;-74
2021/04/14 03:22:14;;;;;;;18.00;10.38;;;2.60;79.50;;;;;;4937212;29;20039;-78
2021/04/14 03:24:40;;;;;;;17.48;10.15;;;2.60;79.70;;;;;;4936960;29;20023;-78
2021/04/14 03:27:07;;;;;;;16.75;10.68;;;2.60;79.80;;;;;;4935641;29;20383;-75
2021/04/14 03:29:32;;;;;;;15.40;9.60;;;2.50;80.00;;;;;;4937152;29;20106;-79
2021/04/14 03:31:58;;;;;;;16.83;10.63;;;2.50;79.80;;;;;;4935444;29;20131;-79
2021/04/14 03:34:23;;;;;;;17.70;10.43;;;2.50;80.30;;;;;;4936365;29;20590;-74
2021/04/14 03:36:49;;;;;;;17.95;10.98;;;2.50;80.20;;;;;;4937028;29;20670;-78
2021/04/14 03:39:15;;;;;;;16.70;10.80;;;2.40;80.10;;;;;;4919573;29;20455;-74
2021/04/14 03:41:40;;;;;;;16.58;10.05;;;2.40;80.40;;;;;;4936679;29;20562;-74
2021/04/14 03:44:06;;;;;;;16.73;11.10;;;2.40;80.30;;;;;;4936571;29;20040;-78
2021/04/14 03:46:32;;;;;;;19.92;10.45;;;2.40;80.20;;;;;;4919728;29;20040;-78
2021/04/14 03:48:57;;;;;;;18.02;10.13;;;2.40;80.00;;;;;;4936821;29;20043;-79
2021/04/14 03:51:27;;;;;;;18.77;10.85;;;2.40;80.00;;;;;;4936970;29;20045;-75
2021/04/14 03:53:54;;;;;;;20.00;11.38;;;2.30;80.50;;;;;;4917597;29;20055;-78
2021/04/14 03:56:21;;;;;;;17.25;10.55;;;2.30;80.50;;;;;;4919592;29;20466;-79
2021/04/14 03:58:52;;;;;;;20.85;11.18;;;2.30;80.50;;;;;;4936623;29;20483;-74
2021/04/14 04:01:29;;;;;;;20.27;12.32;;;2.30;80.50;;;;;;4935629;29;20103;-78
2021/04/14 04:03:55;;;;;;;22.85;11.77;;;2.20;81.00;;;;;;4936960;29;20023;-78
2021/04/14 04:06:21;;;;;;;22.52;11.95;;;2.30;80.50;;;;;;4919018;29;20138;-74
2021/04/14 04:08:47;;;;;;;19.80;11.95;;;2.20;80.80;;;;;;4919120;29;20032;-74
2021/04/14 04:11:14;;;;;;;23.20;12.13;;;2.20;80.90;;;;;;4936360;29;20035;-75
2021/04/14 04:13:40;;;;;;;19.33;12.18;;;2.20;80.60;;;;;;4936303;29;20034;-79
2021/04/14 04:16:06;;;;;;;20.92;12.00;;;2.20;80.60;;;;;;4936473;29;20024;-78
2021/04/14 04:18:33;;;;;;;21.02;11.65;;;2.20;80.80;;;;;;4936125;29;20075;-74
2021/04/14 04:20:59;;;;;;;17.38;11.20;;;2.10;80.60;;;;;;4936098;29;20142;-74
2021/04/14 04:23:25;;;;;;;18.77;11.10;;;2.10;81.00;;;;;;4935202;29;20027;-74
2021/04/14 04:25:51;;;;;;;17.67;11.45;;;2.00;81.10;;;;;;4935478;29;20151;-78
2021/04/14 04:28:20;;;;;;;20.80;11.88;;;2.10;81.10;;;;;;4917753;29;20027;-78
2021/04/14 04:30:46;;;;;;;19.42;11.88;;;2.00;81.30;;;;;;4934655;29;20119;-78
2021/04/14 04:33:12;;;;;;;20.10;11.88;;;2.00;81.40;;;;;;4935705;29;20448;-74
2021/04/14 04:35:38;;;;;;;16.90;11.65;;;2.00;81.40;;;;;;4933424;29;20106;-78
2021/04/14 04:38:04;;;;;;;19.02;11.68;;;2.00;81.30;;;;;;4935607;29;20056;-74
2021/04/14 04:40:30;;;;;;;17.45;11.80;;;2.00;81.30;;;;;;4935713;29;20024;-78
2021/04/14 04:42:57;;;;;;;17.40;10.75;;;2.00;81.40;;;;;;4927316;29;20441;-74
2021/04/14 04:45:26;;;;;;;21.80;11.85;;;2.00;80.80;;;;;;4933693;29;20507;-74
2021/04/14 04:47:51;;;;;;;19.45;11.52;;;2.00;80.80;;;;;;4934480;29;20565;-74
2021/04/14 04:50:19;;;;;;;25.45;11.15;;;2.00;80.80;;;;;;4932276;29;20088;-74
2021/04/14 04:52:45;;;;;;;20.85;11.68;;;2.00;80.80;;;;;;4917929;29;20122;-74
2021/04/14 04:55:12;;;;;;;21.20;11.82;;;2.00;80.80;;;;;;4935222;29;20055;-78
2021/04/14 04:57:38;;;;;;;21.40;11.65;;;2.00;80.50;;;;;;4917883;29;20031;-74
2021/04/14 05:00:06;;;;;;;18.50;11.38;;;2.10;80.30;;;;;;4935264;29;20027;-74
2021/04/14 05:02:31;;;;;;;18.10;10.32;;;2.00;79.80;;;;;;4933867;29;20102;-78
2021/04/14 05:04:57;;;;;;;17.65;11.05;;;2.10;80.00;;;;;;4935162;29;20064;-74
2021/04/14 05:07:23;;;;;;;19.27;10.65;;;2.10;79.90;;;;;;4934575;29;20393;-78
2021/04/14 05:09:48;;;;;;;16.88;10.43;;;2.10;80.10;;;;;;4915142;29;20118;-74
2021/04/14 05:12:14;;;;;;;20.45;10.82;;;2.10;79.70;;;;;;4934884;29;20027;-74
2021/04/14 05:14:40;;;;;;;17.95;10.73;;;2.10;79.40;;;;;;4916466;29;20028;-78
2021/04/14 05:17:06;;;;;;;17.63;10.45;;;2.10;78.90;;;;;;4917544;29;20038;-78
2021/04/14 05:19:32;;;;;;;18.33;10.20;;;2.10;78.70;;;;;;4917924;29;20062;-78
2021/04/14 05:21:57;;;;;;;15.93;10.00;;;2.10;78.80;;;;;;4935072;29;20087;-78
2021/04/14 05:24:23;;;;;;;18.48;10.32;;;2.10;78.80;;;;;;4933875;29;20028;-74
2021/04/14 05:26:49;;;;;;;22.83;10.73;;;2.10;78.80;;;;;;4934436;29;20490;-78
2021/04/14 05:29:14;;;;;;;16.92;10.13;;;2.10;78.70;;;;;;4915800;29;20118;-78
2021/04/14 05:31:41;;;;;;;19.10;9.50;;;2.10;78.70;;;;;;4933889;29;20028;-74
2021/04/14 05:34:07;;;;;;;16.60;10.38;;;2.10;78.80;;;;;;4945036;29;20035;-78
2021/04/14 05:36:34;;;;;;;17.75;10.55;;;2.10;79.20;;;;;;4915548;29;20492;-74
2021/04/14 05:39:00;;;;;;;17.08;10.27;;;2.20;78.90;;;;;;4934053;29;20024;-74
2021/04/14 05:41:26;;;;;;;19.45;10.45;;;2.10;78.90;;;;;;4923736;29;20024;-78
2021/04/14 05:43:52;;;;;;;19.30;10.57;;;2.10;78.70;;;;;;4934055;29;20024;-74
2021/04/14 05:46:20;;;;;;;18.70;9.40;;;2.20;78.80;;;;;;4934386;29;20024;-74
2021/04/14 05:48:47;;;;;;;17.92;9.82;;;2.20;78.50;;;;;;4931296;29;20059;-74
2021/04/14 05:51:18;;;;;;;18.50;10.02;;;2.30;78.00;;;;;;4917208;29;20497;-73
2021/04/14 05:53:46;;;;;;;19.10;10.73;;;2.30;78.00;;;;;;4933104;29;20433;-78
2021/04/14 05:56:12;;;;;;;15.10;8.70;;;2.40;77.70;;;;;;4933107;29;20070;-78
2021/04/14 05:58:38;;;;;;;16.15;9.43;;;2.40;77.40;;;;;;4932720;29;20059;-79
2021/04/14 06:01:10;;;;;;;20.05;9.55;;;2.50;77.00;;;;;;4914871;29;20462;-75
2021/04/14 06:03:35;;;;;;;20.50;10.55;;;2.60;76.80;;;;;;4930838;29;20431;-77
2021/04/14 06:06:01;;;;;;;16.73;9.88;;;2.60;76.80;;;;;;4933300;29;20038;-75
2021/04/14 06:08:28;;;;;;;21.05;9.98;;;2.60;76.70;;;;;;4932735;29;20039;-79
2021/04/14 06:10:55;;;;;;;18.08;9.70;;;2.70;76.40;;;;;;4931357;29;20083;-77
2021/04/14 06:13:21;;;;;;;20.48;9.48;;;2.80;76.20;;;;;;4915847;29;20035;-76
2021/04/14 06:15:46;;;;;;;19.83;9.65;;;2.80;76.10;;;;;;4934170;29;20028;-75
2021/04/14 06:18:12;;;;;;;17.92;9.70;;;2.90;75.70;;;;;;4934088;29;20028;-75
2021/04/14 06:20:39;;;;;;;16.27;9.27;;;3.00;75.10;;;;;;4914774;29;20026;-76
2021/04/14 06:23:09;;;;;;;17.88;9.10;;;3.00;75.00;;;;;;4915648;29;20027;-76
2021/04/14 06:25:40;;;;;;;15.55;9.25;;;3.20;74.80;;;;;;4932942;29;20027;-78
2021/04/14 06:28:07;;;;;;;15.50;8.95;;;3.20;74.10;;;;;;4932525;29;20050;-76
2021/04/14 06:30:34;;;;;;;18.20;8.57;;;3.30;73.60;;;;;;4932324;29;20024;-75
2021/04/14 06:33:02;;;;;;;16.50;8.88;;;3.40;73.90;;;;;;4916323;29;20020;-79
2021/04/14 06:35:29;;;;;;;19.77;8.85;;;3.50;73.40;;;;;;4933327;29;20435;-78
2021/04/14 06:37:54;;;;;;;17.23;8.75;;;3.60;73.00;;;;;;4933865;29;20152;-78
2021/04/14 06:43:15;;;;;;;13.18;7.88;;;3.80;72.30;;;;;;4934156;29;20039;-76
2021/04/14 06:45:45;;;;;;;16.60;9.18;;;3.90;71.60;;;;;;4917465;29;20057;-75
2021/04/14 06:48:47;;;;;;;16.95;9.57;;;4.00;71.30;;;;;;4932483;29;20095;-76
2021/04/14 06:51:33;;;;;;;17.77;8.82;;;4.10;70.70;;;;;;4933379;29;20064;-78
2021/04/14 06:54:07;;;;;;;18.15;8.40;;;4.20;69.80;;;;;;4934612;29;20078;-75
2021/04/14 06:56:37;;;;;;;14.07;8.18;;;4.30;70.10;;;;;;4933497;29;20034;-78
2021/04/14 06:59:10;;;;;;;13.65;8.48;;;4.40;69.80;;;;;;4918697;29;20075;-76
2021/04/14 07:01:42;;;;;;;17.88;9.43;;;4.50;69.50;;;;;;4925620;29;20038;-74
2021/04/14 07:04:25;;;;;;;15.05;8.65;;;4.60;68.80;;;;;;4934256;29;20494;-75
2021/04/14 07:06:53;;;;;;;16.48;8.93;;;4.70;68.40;;;;;;4935472;29;20089;-74
2021/04/14 07:09:42;;;;;;;16.25;9.07;;;4.90;68.40;;;;;;4918910;29;20028;-87
2021/04/14 07:12:11;;;;;;;15.82;8.20;;;5.00;67.70;;;;;;4932677;29;20027;-83
2021/04/14 07:14:37;;;;;;;14.27;8.52;;;5.10;66.20;;;;;;4937014;29;20023;-85
2021/04/14 07:17:31;;;;;;;17.02;8.48;;;5.20;66.40;;;;;;4920734;29;20074;-85
2021/04/14 07:20:19;;;;;;;15.18;9.35;;;5.40;65.80;;;;;;4933379;29;20036;-77
2021/04/14 07:23:05;;;;;;;16.23;8.93;;;5.60;66.00;;;;;;4932497;29;20042;-76
2021/04/14 07:25:56;;;;;;;15.45;8.73;;;5.70;64.40;;;;;;4935528;29;20130;-75
2021/04/14 07:28:52;;;;;;;17.88;8.68;;;5.80;64.40;;;;;;4934226;29;20027;-82
2021/04/14 07:31:40;;;;;;;15.88;8.95;;;5.90;64.00;;;;;;4933960;29;20028;-83
2021/04/14 07:34:08;;;;;;;14.90;8.45;;;6.10;62.90;;;;;;4934861;29;20053;-76
2021/04/14 07:36:59;;;;;;;12.73;8.02;;;6.20;62.80;;;;;;4935718;29;20083;-81
2021/04/14 07:39:42;;;;;;;15.80;8.25;;;6.40;63.30;;;;;;4936669;29;20142;-83
2021/04/14 07:42:44;;;;;;;14.15;8.40;;;6.60;61.40;;;;;;4919359;29;20028;-82
2021/04/14 07:45:21;;;;;;;13.52;7.90;;;6.80;60.60;;;;;;4911471;29;20031;-74
2021/04/14 07:47:51;;;;;;;16.13;7.70;;;6.90;59.30;;;;;;4917579;29;20054;-75
2021/04/14 07:50:23;;;;;;;15.73;8.10;;;7.10;59.20;;;;;;4918267;29;20384;-84
2021/04/14 07:52:49;;;;;;;14.85;9.15;;;7.30;59.20;;;;;;4938738;29;20118;-83
2021/04/14 07:55:24;;;;;;;12.15;7.82;;;7.50;58.40;;;;;;4918437;29;20095;-83
2021/04/14 07:57:50;;;;;;;14.18;8.40;;;7.70;58.70;;;;;;4929087;29;20483;-83
2021/04/14 08:00:32;;;;;;;13.82;8.43;;;8.00;56.80;;;;;;4934321;29;20036;-78
2021/04/14 08:03:22;;;;;;;12.50;8.45;;;8.70;56.30;;;;;;4930328;29;20502;-84
2021/04/14 08:05:47;;;;;;;14.65;8.23;;;11.80;47.90;;;;;;4935176;29;20055;-77
2021/04/14 08:08:27;;;;;;;11.63;8.35;;;14.50;40.60;;;;;;4936899;29;20483;-85
2021/04/14 08:10:59;;;;;;;10.48;8.43;;;15.80;36.60;;;;;;4934228;29;20039;-76
2021/04/14 08:13:29;;;;;;;10.85;8.00;;;17.30;34.50;;;;;;4921597;29;20817;-83
2021/04/14 08:15:55;;;;;;;10.52;8.02;;;18.60;30.90;;;;;;4930772;29;20027;-82
2021/04/14 08:18:32;;;;;;;10.98;7.43;;;18.70;30.40;;;;;;4917483;29;20487;-75
2021/04/14 08:21:09;;;;;;;8.00;7.00;;;19.00;29.80;;;;;;4909893;29;20071;-75
2021/04/14 08:23:36;;;;;;;8.65;7.70;;;19.60;29.10;;;;;;4928810;29;20043;-75
2021/04/14 08:26:16;;;;;;;13.52;7.80;;;19.60;29.40;;;;;;4934320;29;20043;-76
2021/04/14 08:28:48;;;;;;;8.68;7.03;;;20.00;29.20;;;;;;4935522;29;20028;-76
2021/04/14 08:34:23;;;;;;;9.73;7.28;;;20.50;28.50;;;;;;4935703;29;20055;-83
2021/04/14 08:36:56;;;;;;;8.68;7.65;;;20.60;27.70;;;;;;4933524;29;20039;-83
2021/04/14 08:39:30;;;;;;;8.70;7.00;;;20.50;27.70;;;;;;4933619;29;20055;-76
2021/04/14 08:42:27;;;;;;;8.30;7.32;;;20.20;27.50;;;;;;4934707;29;20102;-76
2021/04/14 08:45:03;;;;;;;10.68;7.25;;;20.60;27.10;;;;;;4921201;29;20530;-76
2021/04/14 08:47:32;;;;;;;8.75;7.32;;;20.80;27.40;;;;;;4920605;29;20805;-83
2021/04/14 08:50:06;;;;;;;10.63;7.22;;;20.90;26.90;;;;;;4934771;29;20061;-84
2021/04/14 08:52:33;;;;;;;10.02;7.97;;;21.20;27.40;;;;;;4915312;29;20079;-76
2021/04/14 08:55:00;;;;;;;16.48;7.72;;;21.40;26.60;;;;;;4934135;29;20074;-88
2021/04/14 08:57:26;;;;;;;9.60;7.32;;;21.70;26.20;;;;;;4916233;29;20034;-90
2021/04/14 08:59:54;;;;;;;10.05;7.25;;;22.00;25.80;;;;;;4934731;29;20027;-87
2021/04/14 09:02:21;;;;;;;11.35;7.38;;;21.80;24.60;;;;;;4936281;29;20102;-86
2021/04/14 09:04:49;;;;;;;8.85;7.40;;;21.50;25.70;;;;;;4933936;29;20020;-77
2021/04/14 09:07:18;;;;;;;9.18;7.15;;;21.30;25.20;;;;;;4933634;29;20035;-87
2021/04/14 09:09:49;;;;;;;8.35;7.20;;;21.90;25.30;;;;;;4932913;29;20055;-86
2021/04/14 09:12:16;;;;;;;8.80;7.18;;;21.60;24.80;;;;;;4908204;29;20103;-78
2021/04/14 09:14:43;;;;;;;11.95;7.50;;;21.40;25.50;;;;;;4933723;29;20055;-85
2021/04/14 09:17:12;;;;;;;11.70;7.95;;;22.00;25.10;;;;;;4916326;29;20479;-79
2021/04/14 09:19:43;;;;;;;10.75;7.90;;;21.40;24.60;;;;;;4917316;29;20110;-78
2021/04/14 09:22:15;;;;;;;8.73;7.32;;;21.20;25.10;;;;;;4933318;29;20082;-85
2021/04/14 09:24:56;;;;;;;10.25;7.20;;;21.80;25.10;;;;;;4933955;29;20106;-78
2021/04/14 09:27:36;;;;;;;9.55;7.40;;;21.70;24.40;;;;;;4933917;29;20035;-85
2021/04/14 09:30:28;;;;;;;10.70;7.53;;;20.50;24.60;;;;;;4931954;29;20398;-78
2021/04/14 09:33:03;;;;;;;12.93;6.47;;;20.90;25.00;;;;;;4934935;29;20036;-78
2021/04/14 09:35:29;;;;;;;9.07;7.57;;;21.40;24.70;;;;;;4925690;29;20064;-78
2021/04/14 09:38:23;;;;;;;14.45;7.68;;;21.30;23.30;;;;;;4932205;29;20394;-78
2021/04/14 09:40:50;;;;;;;15.20;7.20;;;20.80;23.60;;;;;;4932323;29;20070;-78
2021/04/14 09:43:28;;;;;;;12.38;6.85;;;20.80;23.20;;;;;;4934271;29;20016;-79
2021/04/14 09:46:00;;;;;;;13.18;6.40;;;20.30;23.50;;;;;;4931851;29;20031;-78
2021/04/14 09:48:42;;;;;;;15.02;6.55;;;20.70;23.60;;;;;;4933283;29;20032;-77
2021/04/14 09:51:33;;;;;;;11.90;6.97;;;21.10;23.40;;;;;;4935128;28;20028;-85
2021/04/14 09:54:07;;;;;;;9.45;6.50;;;21.20;22.70;;;;;;4933168;29;20040;-85
2021/04/14 09:56:34;;;;;;;11.15;6.22;;;21.10;23.20;;;;;;4932830;29;20091;-85
2021/04/14 09:59:21;;;;;;;14.18;6.15;;;20.90;23.00;;;;;;4933086;29;20431;-77
2021/04/14 10:01:50;;;;;;;18.83;6.30;;;20.40;22.60;;;;;;4931652;29;20036;-83
2021/04/14 10:04:21;;;;;;;8.40;5.85;;;20.90;22.40;;;;;;4915110;29;20403;-85
2021/04/14 10:06:48;;;;;;;9.75;5.25;;;20.90;22.40;;;;;;4933030;29;20028;-84
2021/04/14 10:09:29;;;;;;;7.30;4.90;;;21.10;22.20;;;;;;4932912;29;20063;-78
2021/04/14 10:11:55;;;;;;;9.15;5.38;;;21.00;22.30;;;;;;4931900;29;20119;-79
2021/04/14 10:14:27;;;;;;;8.45;5.57;;;21.00;21.70;;;;;;4931428;29;20027;-80
2021/04/14 10:17:06;;;;;;;14.40;6.20;;;20.40;22.80;;;;;;4936008;29;20095;-85
2021/04/14 10:19:33;;;;;;;10.85;6.32;;;20.90;23.00;;;;;;4925562;29;20032;-84
2021/04/14 10:22:34;;;;;;;8.70;6.53;;;20.90;22.80;;;;;;4926646;29;20016;-85
2021/04/14 10:25:04;;;;;;;10.18;5.93;;;20.40;23.50;;;;;;4914109;29;20071;-79
2021/04/14 10:27:30;;;;;;;11.38;5.53;;;19.80;23.80;;;;;;4933914;29;20024;-85
2021/04/14 10:30:00;;;;;;;7.30;6.10;;;19.50;24.10;;;;;;4938927;29;20059;-85
2021/04/14 10:32:28;;;;;;;10.13;6.53;;;19.60;23.60;;;;;;4917331;29;20035;-79
2021/04/14 10:35:04;;;;;;;10.77;5.50;;;19.00;24.40;;;;;;4936698;29;20036;-76
2021/04/14 10:37:30;;;;;;;8.98;5.50;;;18.70;24.90;;;;;;4930914;29;20032;-77
2021/04/14 10:40:08;;;;;;;8.55;5.70;;;18.50;24.40;;;;;;4937295;29;20094;-83
2021/04/14 10:42:34;;;;;;;9.23;6.70;;;18.80;25.30;;;;;;4936084;29;20020;-85
2021/04/14 10:45:08;;;;;;;9.20;6.05;;;19.20;24.90;;;;;;4937105;29;20046;-86
2021/04/14 10:47:39;;;;;;;8.43;5.90;;;19.70;24.30;;;;;;4917854;29;20035;-80
2021/04/14 10:50:17;;;;;;;11.48;5.85;;;20.20;24.00;;;;;;4935845;29;20044;-77
2021/04/14 10:52:45;;;;;;;7.72;5.55;;;20.40;24.10;;;;;;4939224;29;20062;-76
2021/04/14 10:55:14;;;;;;;8.57;5.97;;;20.10;24.10;;;;;;4917076;29;20052;-84
2021/04/14 10:57:56;;;;;;;8.93;5.82;;;20.20;24.70;;;;;;4936199;29;20036;-85
2021/04/14 11:00:30;;;;;;;7.07;4.88;;;20.00;23.50;;;;;;4935281;29;20035;-78
2021/04/14 11:03:00;;;;;;;8.18;5.18;;;19.10;24.10;;;;;;4920637;29;20059;-77
2021/04/14 11:05:28;;;;;;;9.07;4.78;;;18.90;25.50;;;;;;4937655;29;20031;-84
2021/04/14 11:07:55;;;;;;;9.20;4.40;;;18.70;25.30;;;;;;4935424;29;20028;-84
2021/04/14 11:10:31;;;;;;;6.40;4.40;;;18.70;25.30;;;;;;4946840;29;20138;-76
2021/04/14 11:12:58;;;;;;;6.70;4.57;;;18.80;25.20;;;;;;4935375;29;20447;-84
2021/04/14 11:15:32;;;;;;;8.85;4.93;;;19.10;25.20;;;;;;4938306;29;20035;-77
2021/04/14 11:18:01;;;;;;;6.50;4.22;;;19.30;24.70;;;;;;4921568;29;20031;-77
2021/04/14 11:20:52;;;;;;;5.60;3.92;;;19.40;24.50;;;;;;4935150;29;20494;-84
2021/04/14 11:23:30;;;;;;;4.97;3.88;;;18.90;24.70;;;;;;4938026;29;20511;-84
2021/04/14 11:26:10;;;;;;;6.60;4.10;;;18.40;25.40;;;;;;4935485;29;20128;-76
2021/04/14 11:28:51;;;;;;;6.72;4.13;;;18.00;25.20;;;;;;4935949;29;20160;-76
2021/04/14 11:31:30;;;;;;;5.78;4.10;;;17.30;26.60;;;;;;4915229;29;20079;-76
2021/04/14 11:33:57;;;;;;;10.57;3.90;;;17.00;26.90;;;;;;4933011;29;20035;-84
2021/04/14 11:36:26;;;;;;;4.55;3.53;;;17.00;27.60;;;;;;4935987;29;20040;-84
2021/04/14 11:39:21;;;;;;;7.57;3.35;;;16.80;27.30;;;;;;4936467;29;20043;-84
2021/04/14 11:42:01;;;;;;;4.95;3.22;;;16.80;26.80;;;;;;4913463;29;20048;-76
2021/04/14 11:44:41;;;;;;;5.57;3.65;;;16.90;27.30;;;;;;4935717;29;20078;-83
2021/04/14 11:47:09;;;;;;;6.30;3.65;;;17.30;27.70;;;;;;4935635;29;20036;-86
2021/04/14 11:49:37;;;;;;;8.90;3.63;;;17.10;27.00;;;;;;4936133;29;20139;-77
2021/04/14 11:52:36;;;;;;;7.80;4.03;;;17.20;28.40;;;;;;4935739;29;20443;-77
2021/04/14 11:55:27;;;;;;;6.65;4.07;;;16.80;28.70;;;;;;4919874;29;20062;-78
2021/04/14 11:57:57;;;;;;;5.50;3.70;;;16.40;29.00;;;;;;4933895;29;20495;-85
2021/04/14 12:00:26;;;;;;;5.95;3.08;;;16.30;29.10;;;;;;4934155;29;20054;-76
2021/04/14 12:03:01;;;;;;;14.25;3.70;;;16.60;29.50;;;;;;4920455;29;20130;-77
2021/04/14 12:05:27;;;;;;;4.85;3.45;;;16.80;28.60;;;;;;4916003;29;20023;-78
2021/04/14 12:07:53;;;;;;;6.38;4.03;;;16.50;27.50;;;;;;4935994;29;20035;-78
2021/04/14 12:10:19;;;;;;;8.13;3.65;;;16.80;29.30;;;;;;4929412;29;20058;-75
2021/04/14 12:12:45;;;;;;;7.15;4.15;;;16.50;28.80;;;;;;4933539;29;20043;-85
2021/04/14 12:15:12;;;;;;;6.57;3.80;;;16.30;29.30;;;;;;4933872;29;20023;-85
2021/04/14 12:17:37;;;;;;;5.13;3.20;;;16.20;31.20;;;;;;4933657;29;20028;-85
2021/04/14 12:20:05;;;;;;;5.80;4.05;;;16.40;29.70;;;;;;4926267;29;20032;-76
2021/04/14 12:22:32;;;;;;;4.88;3.15;;;16.40;30.00;;;;;;4911897;29;20490;-76
2021/04/14 12:24:58;;;;;;;8.57;3.05;;;16.60;30.50;;;;;;4913261;29;20108;-78
2021/04/14 12:27:24;;;;;;;6.20;3.25;;;16.90;30.00;;;;;;4928101;29;20483;-84
2021/04/14 12:29:50;;;;;;;6.38;3.10;;;17.00;29.10;;;;;;4930926;29;20032;-85
2021/04/14 12:32:18;;;;;;;9.13;2.97;;;17.00;29.00;;;;;;4932859;29;20032;-78
2021/04/14 12:34:44;;;;;;;9.90;3.35;;;16.70;29.20;;;;;;4933706;29;20039;-76
2021/04/14 12:37:10;;;;;;;5.15;3.28;;;16.90;30.00;;;;;;4936459;29;20486;-84
2021/04/14 12:39:35;;;;;;;5.25;3.38;;;16.70;30.00;;;;;;4915274;29;20028;-84
2021/04/14 12:42:01;;;;;;;4.28;3.00;;;16.70;31.00;;;;;;4934751;29;20023;-85
2021/04/14 12:44:28;;;;;;;4.85;2.95;;;16.90;31.00;;;;;;4933467;29;20038;-76
2021/04/14 12:46:56;;;;;;;4.38;2.65;;;17.10;30.70;;;;;;4917972;29;20490;-85
2021/04/14 12:49:23;;;;;;;7.43;2.58;;;16.90;29.00;;;;;;4935771;29;20028;-76
2021/04/14 12:51:56;;;;;;;5.30;2.47;;;16.80;29.80;;;;;;4934415;29;20036;-76
2021/04/14 12:54:24;;;;;;;;;;;16.70;30.00;;;;;;4926993;29;20052;-77
2021/04/14 12:57:06;;;;;;;7.05;2.70;;;16.80;29.10;;;;;;4932462;29;19921;-84
2021/04/14 12:59:40;;;;;;;3.25;2.13;;;17.00;29.10;;;;;;4927070;29;20479;-74
2021/04/14 13:02:32;;;;;;;6.35;2.20;;;17.10;29.30;;;;;;4933324;29;20032;-85
2021/04/14 13:05:39;;;;;;;4.32;2.50;;;16.90;29.00;;;;;;4935855;29;20027;-83
2021/04/14 13:08:11;;;;;;;3.22;2.17;;;16.70;30.20;;;;;;4846698;29;20059;-83